createdAt,value
2023-11-16T00:00:23.910Z,99.99
2023-11-16T00:01:23.866Z,99.99
2023-11-16T00:02:23.856Z,99.99
2023-11-16T00:03:23.881Z,99.99
2023-11-16T00:04:23.836Z,99.99
2023-11-16T00:05:23.821Z,99.99
2023-11-16T00:06:23.888Z,99.99
2023-11-16T00:07:23.808Z,99.99
2023-11-16T00:08:23.793Z,99.99
2023-11-16T00:09:23.794Z,99.99
2023-11-16T00:10:23.771Z,99.99
2023-11-16T00:11:23.763Z,99.99
2023-11-16T00:12:23.846Z,99.99
2023-11-16T00:13:23.725Z,99.99
2023-11-16T00:14:23.717Z,99.99
2023-11-16T00:15:23.743Z,99.99
2023-11-16T00:16:23.728Z,99.99
2023-11-16T00:17:23.725Z,99.99
2023-11-16T00:18:23.705Z,99.99
2023-11-16T00:19:23.713Z,99.99
2023-11-16T00:20:23.673Z,99.99
2023-11-16T00:21:23.680Z,99.99
2023-11-16T00:22:23.643Z,99.99
2023-11-16T00:23:23.617Z,99.99
2023-11-16T00:24:23.650Z,99.99
2023-11-16T00:25:23.607Z,99.99
2023-11-16T00:26:23.602Z,99.99
2023-11-16T00:27:23.632Z,99.99
2023-11-16T00:28:23.599Z,99.99
2023-11-16T00:29:23.576Z,99.99
2023-11-16T00:30:23.610Z,99.99
2023-11-16T00:31:23.612Z,99.99
2023-11-16T00:32:23.535Z,99.99
2023-11-16T00:33:23.557Z,99.99
2023-11-16T00:34:23.515Z,99.99
2023-11-16T00:35:23.500Z,99.99
2023-11-16T00:36:23.575Z,99.99
2023-11-16T00:37:23.478Z,99.99
2023-11-16T00:38:23.461Z,99.99
2023-11-16T00:39:23.503Z,99.99
2023-11-16T00:40:23.461Z,99.99
2023-11-16T00:41:23.442Z,99.99
2023-11-16T00:42:23.457Z,99.99
2023-11-16T00:43:23.439Z,99.99
2023-11-16T00:44:23.439Z,99.99
2023-11-16T00:45:23.461Z,99.99
2023-11-16T00:46:23.510Z,99.99
2023-11-16T00:47:23.380Z,99.99
2023-11-16T00:48:23.426Z,99.99
2023-11-16T00:49:23.349Z,99.99
2023-11-16T00:50:23.371Z,99.99
2023-11-16T00:51:23.386Z,99.99
2023-11-16T00:52:23.330Z,99.99
2023-11-16T00:53:23.296Z,99.99
2023-11-16T00:54:23.343Z,99.99
2023-11-16T00:55:23.305Z,99.99
2023-11-16T00:56:23.302Z,99.99
2023-11-16T00:57:23.468Z,99.99
2023-11-16T00:58:23.267Z,99.99
2023-11-16T00:59:23.250Z,99.99
2023-11-16T01:00:23.285Z,99.99
2023-11-16T01:01:23.239Z,99.99
2023-11-16T01:02:23.240Z,99.99
2023-11-16T01:03:23.325Z,99.99
2023-11-16T01:04:23.199Z,99.99
2023-11-16T01:05:23.190Z,99.99
2023-11-16T01:06:23.190Z,99.99
2023-11-16T01:07:23.175Z,99.99
2023-11-16T01:08:23.145Z,99.99
2023-11-16T01:09:23.175Z,99.99
2023-11-16T01:10:23.113Z,99.99
2023-11-16T01:11:23.132Z,99.99
2023-11-16T01:12:23.134Z,99.99
2023-11-16T01:13:23.106Z,99.99
2023-11-16T01:14:23.737Z,99.99
2023-11-16T01:15:23.098Z,99.99
2023-11-16T01:16:23.114Z,99.99
2023-11-16T01:17:23.065Z,99.99
2023-11-16T01:18:23.056Z,99.99
2023-11-16T01:19:23.016Z,99.99
2023-11-16T01:20:23.012Z,99.99
2023-11-16T01:21:23.048Z,99.99
2023-11-16T01:22:22.992Z,99.99
2023-11-16T01:23:22.986Z,99.99
2023-11-16T01:24:22.998Z,99.99
2023-11-16T01:25:22.963Z,99.99
2023-11-16T01:26:22.981Z,99.99
2023-11-16T01:27:22.999Z,99.99
2023-11-16T01:28:22.976Z,99.99
2023-11-16T01:29:22.935Z,99.99
2023-11-16T01:30:22.956Z,99.99
2023-11-16T01:31:22.934Z,99.99
2023-11-16T01:32:22.903Z,99.99
2023-11-16T01:33:22.886Z,99.99
2023-11-16T01:34:22.883Z,99.99
2023-11-16T01:35:23.085Z,99.99
2023-11-16T01:36:22.857Z,99.99
2023-11-16T01:37:22.844Z,99.99
2023-11-16T01:38:22.822Z,99.99
2023-11-16T01:39:22.902Z,99.99
2023-11-16T01:40:22.816Z,99.99
2023-11-16T01:41:22.808Z,99.99
2023-11-16T01:42:22.833Z,99.99
2023-11-16T01:43:22.776Z,99.99
2023-11-16T01:44:22.775Z,99.99
2023-11-16T01:45:22.777Z,99.99
2023-11-16T01:46:22.800Z,99.99
2023-11-16T01:47:22.713Z,99.99
2023-11-16T01:48:22.736Z,99.99
2023-11-16T01:49:22.699Z,99.99
2023-11-16T01:50:22.686Z,99.99
2023-11-16T01:51:22.738Z,99.99
2023-11-16T01:52:22.702Z,99.99
2023-11-16T01:53:22.650Z,99.99
2023-11-16T01:54:22.673Z,99.99
2023-11-16T01:55:22.656Z,99.99
2023-11-16T01:56:22.657Z,99.99
2023-11-16T01:57:22.650Z,99.99
2023-11-16T01:58:22.608Z,99.99
2023-11-16T01:59:22.606Z,99.99
2023-11-16T02:00:22.610Z,99.99
2023-11-16T02:01:22.759Z,99.99
2023-11-16T02:02:22.626Z,99.99
2023-11-16T02:03:22.649Z,99.99
2023-11-16T02:04:22.624Z,99.99
2023-11-16T02:05:22.521Z,99.99
2023-11-16T02:06:22.538Z,99.99
2023-11-16T02:07:22.565Z,99.99
2023-11-16T02:08:22.506Z,99.99
2023-11-16T02:09:22.653Z,99.99
2023-11-16T02:10:22.468Z,99.99
2023-11-16T02:11:22.545Z,99.99
2023-11-16T02:12:22.524Z,99.99
2023-11-16T02:13:22.528Z,99.99
2023-11-16T02:14:22.463Z,99.99
2023-11-16T02:15:22.473Z,99.99
2023-11-16T02:16:23.239Z,99.99
2023-11-16T02:17:22.454Z,99.99
2023-11-16T02:18:23.070Z,99.99
2023-11-16T02:19:22.435Z,99.99
2023-11-16T02:20:22.386Z,99.99
2023-11-16T02:21:22.381Z,99.99
2023-11-16T02:22:22.359Z,99.99
2023-11-16T02:23:23.202Z,99.99
2023-11-16T02:24:22.373Z,99.99
2023-11-16T02:25:22.308Z,99.99
2023-11-16T02:26:22.321Z,99.99
2023-11-16T02:27:22.341Z,99.99
2023-11-16T02:28:23.200Z,99.99
2023-11-16T02:29:22.981Z,99.99
2023-11-16T02:30:22.302Z,99.99
2023-11-16T02:31:22.270Z,99.99
2023-11-16T02:32:22.277Z,99.99
2023-11-16T02:33:23.204Z,99.99
2023-11-16T02:34:22.357Z,99.99
2023-11-16T02:35:22.223Z,99.99
2023-11-16T02:36:22.219Z,99.99
2023-11-16T02:37:22.990Z,99.99
2023-11-16T02:38:22.230Z,99.99
2023-11-16T02:39:22.186Z,99.99
2023-11-16T02:40:22.147Z,99.99
2023-11-16T02:41:22.177Z,99.99
2023-11-16T02:42:22.741Z,99.99
2023-11-16T02:43:22.383Z,99.99
2023-11-16T02:44:22.101Z,99.99
2023-11-16T02:45:23.136Z,99.99
2023-11-16T02:46:22.107Z,99.99
2023-11-16T02:47:22.110Z,99.99
2023-11-16T02:48:23.202Z,99.99
2023-11-16T02:49:22.099Z,99.99
2023-11-16T02:50:22.068Z,99.99
2023-11-16T02:51:22.061Z,99.99
2023-11-16T02:52:22.034Z,99.99
2023-11-16T02:53:22.026Z,99.99
2023-11-16T02:54:22.016Z,99.99
2023-11-16T02:55:22.023Z,99.99
2023-11-16T02:56:21.993Z,99.99
2023-11-16T02:57:22.025Z,99.99
2023-11-16T02:58:21.960Z,99.99
2023-11-16T02:59:21.961Z,99.99
2023-11-16T03:00:22.025Z,99.99
2023-11-16T03:01:21.976Z,99.99
2023-11-16T03:02:21.915Z,99.99
2023-11-16T03:03:21.923Z,99.99
2023-11-16T03:04:21.958Z,99.99
2023-11-16T03:05:21.896Z,99.99
2023-11-16T03:06:21.917Z,99.99
2023-11-16T03:07:30.617Z,99.99
2023-11-16T03:08:21.860Z,99.99
2023-11-16T03:09:21.897Z,99.99
2023-11-16T03:10:21.826Z,99.99
2023-11-16T03:11:21.826Z,99.99
2023-11-16T03:12:21.841Z,99.99
2023-11-16T03:13:21.812Z,99.99
2023-11-16T03:14:21.790Z,99.99
2023-11-16T03:15:21.787Z,99.99
2023-11-16T03:16:21.832Z,99.99
2023-11-16T03:17:21.751Z,99.99
2023-11-16T03:18:21.775Z,99.99
2023-11-16T03:19:21.720Z,99.99
2023-11-16T03:20:21.738Z,99.99
2023-11-16T03:21:29.701Z,99.99
2023-11-16T03:22:21.706Z,99.99
2023-11-16T03:23:21.705Z,99.99
2023-11-16T03:24:21.741Z,99.99
2023-11-16T03:25:21.664Z,99.99
2023-11-16T03:26:21.759Z,99.99
2023-11-16T03:27:21.661Z,99.99
2023-11-16T03:28:21.634Z,99.99
2023-11-16T03:29:21.869Z,99.99
2023-11-16T03:30:21.660Z,99.99
2023-11-16T03:31:21.693Z,99.99
2023-11-16T03:32:21.600Z,99.99
2023-11-16T03:33:21.624Z,99.99
2023-11-16T03:34:21.859Z,99.99
2023-11-16T03:35:21.572Z,99.99
2023-11-16T03:36:21.564Z,99.99
2023-11-16T03:37:21.580Z,99.99
2023-11-16T03:38:21.545Z,99.99
2023-11-16T03:39:21.862Z,99.99
2023-11-16T03:40:21.504Z,99.99
2023-11-16T03:41:21.578Z,99.99
2023-11-16T03:42:21.562Z,99.99
2023-11-16T03:43:21.469Z,99.99
2023-11-16T03:44:21.492Z,99.99
2023-11-16T03:45:21.736Z,99.99
2023-11-16T03:46:21.487Z,99.99
2023-11-16T03:47:21.468Z,99.99
2023-11-16T03:48:21.647Z,99.99
2023-11-16T03:49:21.644Z,99.99
2023-11-16T03:50:21.383Z,99.99
2023-11-16T03:51:21.419Z,99.99
2023-11-16T03:52:21.450Z,99.99
2023-11-16T03:53:21.368Z,99.99
2023-11-16T03:54:21.350Z,99.99
2023-11-16T03:55:21.367Z,99.99
2023-11-16T03:56:21.357Z,99.99
2023-11-16T03:57:21.730Z,99.99
2023-11-16T03:58:21.298Z,99.99
2023-11-16T03:59:21.288Z,99.99
2023-11-16T04:00:21.399Z,99.99
2023-11-16T04:01:21.536Z,99.99
2023-11-16T04:02:21.487Z,99.99
2023-11-16T04:03:21.434Z,99.99
2023-11-16T04:04:21.453Z,99.99
2023-11-16T04:05:21.254Z,99.99
2023-11-16T04:06:21.424Z,99.99
2023-11-16T04:07:21.218Z,99.99
2023-11-16T04:08:21.189Z,99.99
2023-11-16T04:09:21.260Z,99.99
2023-11-16T04:10:21.204Z,99.99
2023-11-16T04:11:21.176Z,99.99
2023-11-16T04:12:21.151Z,99.99
2023-11-16T04:13:21.816Z,99.99
2023-11-16T04:14:21.149Z,99.99
2023-11-16T04:15:21.121Z,99.99
2023-11-16T04:16:21.278Z,99.99
2023-11-16T04:17:21.216Z,99.99
2023-11-16T04:18:21.175Z,99.99
2023-11-16T04:19:21.186Z,99.99
2023-11-16T04:20:21.062Z,99.99
2023-11-16T04:21:21.090Z,99.99
2023-11-16T04:22:21.063Z,99.99
2023-11-16T04:23:21.083Z,99.99
2023-11-16T04:24:21.056Z,99.99
2023-11-16T04:25:21.042Z,99.99
2023-11-16T04:26:20.993Z,99.99
2023-11-16T04:27:21.014Z,99.99
2023-11-16T04:28:20.979Z,99.99
2023-11-16T04:29:23.186Z,99.99
2023-11-16T04:30:21.197Z,99.99
2023-11-16T04:31:21.007Z,99.99
2023-11-16T04:32:20.960Z,99.99
2023-11-16T04:33:20.962Z,99.99
2023-11-16T04:34:20.961Z,99.99
2023-11-16T04:35:20.910Z,99.99
2023-11-16T04:36:21.073Z,99.99
2023-11-16T04:37:20.903Z,99.99
2023-11-16T04:38:21.067Z,99.99
2023-11-16T04:39:20.902Z,99.99
2023-11-16T04:40:21.050Z,99.99
2023-11-16T04:41:20.871Z,99.99
2023-11-16T04:42:20.894Z,99.99
2023-11-16T04:43:20.839Z,99.99
2023-11-16T04:44:20.840Z,99.99
2023-11-16T04:45:20.884Z,99.99
2023-11-16T04:46:20.796Z,99.99
2023-11-16T04:47:20.801Z,99.99
2023-11-16T04:48:20.945Z,99.99
2023-11-16T04:49:20.800Z,99.99
2023-11-16T04:50:20.763Z,99.99
2023-11-16T04:51:20.792Z,99.99
2023-11-16T04:52:20.736Z,99.99
2023-11-16T04:53:20.726Z,99.99
2023-11-16T04:54:20.745Z,99.99
2023-11-16T04:55:20.816Z,99.99
2023-11-16T04:56:20.712Z,99.99
2023-11-16T04:57:20.700Z,99.99
2023-11-16T04:58:20.694Z,99.99
2023-11-16T04:59:20.696Z,99.99
2023-11-16T05:00:20.768Z,99.99
2023-11-16T05:01:20.723Z,99.99
2023-11-16T05:02:20.622Z,99.99
2023-11-16T05:03:20.863Z,99.99
2023-11-16T05:04:20.724Z,99.99
2023-11-16T05:05:20.611Z,99.99
2023-11-16T05:06:20.632Z,99.99
2023-11-16T05:07:20.574Z,99.99
2023-11-16T05:08:20.558Z,99.99
2023-11-16T05:09:20.567Z,99.99
2023-11-16T05:10:20.561Z,99.99
2023-11-16T05:11:20.548Z,99.99
2023-11-16T05:12:20.611Z,99.99
2023-11-16T05:13:20.511Z,99.99
2023-11-16T05:14:20.518Z,99.99
2023-11-16T05:15:20.544Z,99.99
2023-11-16T05:16:20.562Z,99.99
2023-11-16T05:17:20.478Z,99.99
2023-11-16T05:18:20.518Z,99.99
2023-11-16T05:19:20.440Z,99.99
2023-11-16T05:20:20.443Z,99.99
2023-11-16T05:21:20.436Z,99.99
2023-11-16T05:22:20.426Z,99.99
2023-11-16T05:23:20.428Z,99.99
2023-11-16T05:24:20.408Z,99.99
2023-11-16T05:25:20.404Z,99.99
2023-11-16T05:26:20.376Z,99.99
2023-11-16T05:27:20.373Z,99.99
2023-11-16T05:28:20.359Z,99.99
2023-11-16T05:29:20.358Z,99.99
2023-11-16T05:30:20.360Z,99.99
2023-11-16T05:31:20.361Z,99.99
2023-11-16T05:32:20.301Z,99.99
2023-11-16T05:33:20.490Z,99.99
2023-11-16T05:34:20.299Z,99.99
2023-11-16T05:35:20.298Z,99.99
2023-11-16T05:36:20.356Z,99.99
2023-11-16T05:37:20.291Z,99.99
2023-11-16T05:38:20.259Z,99.99
2023-11-16T05:39:20.238Z,99.99
2023-11-16T05:40:20.231Z,99.99
2023-11-16T05:41:21.178Z,99.99
2023-11-16T05:42:20.223Z,99.99
2023-11-16T05:43:20.185Z,99.99
2023-11-16T05:44:20.202Z,99.99
2023-11-16T05:45:20.211Z,99.99
2023-11-16T05:46:20.177Z,99.99
2023-11-16T05:47:20.164Z,99.99
2023-11-16T05:48:20.220Z,99.99
2023-11-16T05:49:20.116Z,99.99
2023-11-16T05:50:20.131Z,99.99
2023-11-16T05:51:20.223Z,99.99
2023-11-16T05:52:20.095Z,99.63
2023-11-16T05:53:20.104Z,99.42
2023-11-16T05:54:20.046Z,99.52
2023-11-16T05:55:20.070Z,99.52
2023-11-16T05:56:20.062Z,99.73
2023-11-16T05:57:20.050Z,99.83
2023-11-16T05:58:19.965Z,99.83
2023-11-16T05:59:19.973Z,99.63
2023-11-16T06:00:19.954Z,99.63
2023-11-16T06:01:20.095Z,99.52
2023-11-16T06:02:19.983Z,99.42
2023-11-16T06:03:20.046Z,99.52
2023-11-16T06:04:20.017Z,99.63
2023-11-16T06:05:19.940Z,99.73
2023-11-16T06:06:19.924Z,99.63
2023-11-16T06:07:19.902Z,99.52
2023-11-16T06:08:19.883Z,99.73
2023-11-16T06:09:19.889Z,99.73
2023-11-16T06:10:19.841Z,99.83
2023-11-16T06:11:19.842Z,99.63
2023-11-16T06:12:20.033Z,99.63
2023-11-16T06:13:19.837Z,99.73
2023-11-16T06:14:20.235Z,99.63
2023-11-16T06:15:19.920Z,99.83
2023-11-16T06:16:19.894Z,99.93
2023-11-16T06:17:19.779Z,99.93
2023-11-16T06:18:19.817Z,99.73
2023-11-16T06:19:19.742Z,99.52
2023-11-16T06:20:19.759Z,99.42
2023-11-16T06:21:19.740Z,99.52
2023-11-16T06:22:19.731Z,99.42
2023-11-16T06:23:19.716Z,99.42
2023-11-16T06:24:19.741Z,99.42
2023-11-16T06:25:19.694Z,99.42
2023-11-16T06:26:19.683Z,99.42
2023-11-16T06:27:19.692Z,99.42
2023-11-16T06:28:19.678Z,99.63
2023-11-16T06:29:19.670Z,99.73
2023-11-16T06:30:19.817Z,99.32
2023-11-16T06:31:19.636Z,99.21
2023-11-16T06:32:19.618Z,99.11
2023-11-16T06:33:19.622Z,98.70
2023-11-16T06:34:19.608Z,98.80
2023-11-16T06:35:19.573Z,98.80
2023-11-16T06:36:19.570Z,98.60
2023-11-16T06:37:19.565Z,98.70
2023-11-16T06:38:19.536Z,98.70
2023-11-16T06:39:19.562Z,98.60
2023-11-16T06:40:19.537Z,98.50
2023-11-16T06:41:19.505Z,98.60
2023-11-16T06:42:19.528Z,98.60
2023-11-16T06:43:19.503Z,98.66
2023-11-16T06:44:19.505Z,98.60
2023-11-16T06:45:19.509Z,98.70
2023-11-16T06:46:19.483Z,98.60
2023-11-16T06:47:19.450Z,98.60
2023-11-16T06:48:19.462Z,98.50
2023-11-16T06:49:19.423Z,98.45
2023-11-16T06:50:19.432Z,98.55
2023-11-16T06:51:19.509Z,98.50
2023-11-16T06:52:19.384Z,98.66
2023-11-16T06:53:19.388Z,98.45
2023-11-16T06:54:19.400Z,98.55
2023-11-16T06:55:19.351Z,98.04
2023-11-16T06:56:19.372Z,98.25
2023-11-16T06:57:19.373Z,98.35
2023-11-16T06:58:19.339Z,98.55
2023-11-16T06:59:19.314Z,98.25
2023-11-16T07:00:19.361Z,98.04
2023-11-16T07:01:19.350Z,98.04
2023-11-16T07:02:19.297Z,98.04
2023-11-16T07:03:19.456Z,97.73
2023-11-16T07:04:19.337Z,97.63
2023-11-16T07:05:19.243Z,97.63
2023-11-16T07:06:19.269Z,97.32
2023-11-16T07:07:19.296Z,97.53
2023-11-16T07:08:19.245Z,97.53
2023-11-16T07:09:19.280Z,97.73
2023-11-16T07:10:19.220Z,97.63
2023-11-16T07:11:19.201Z,97.53
2023-11-16T07:12:19.215Z,97.53
2023-11-16T07:13:19.165Z,97.73
2023-11-16T07:14:19.169Z,97.38
2023-11-16T07:15:19.161Z,97.38
2023-11-16T07:16:19.161Z,97.28
2023-11-16T07:17:19.230Z,97.17
2023-11-16T07:18:19.167Z,97.17
2023-11-16T07:19:19.099Z,97.58
2023-11-16T07:20:19.105Z,97.58
2023-11-16T07:21:19.093Z,97.69
2023-11-16T07:22:19.109Z,97.48
2023-11-16T07:23:19.060Z,97.58
2023-11-16T07:24:19.083Z,97.69
2023-11-16T07:25:19.043Z,97.99
2023-11-16T07:26:19.020Z,97.89
2023-11-16T07:27:19.049Z,97.89
2023-11-16T07:28:19.007Z,97.89
2023-11-16T07:29:19.082Z,97.58
2023-11-16T07:30:19.048Z,97.28
2023-11-16T07:31:19.057Z,97.79
2023-11-16T07:32:18.965Z,97.69
2023-11-16T07:33:19.051Z,97.79
2023-11-16T07:34:18.934Z,97.69
2023-11-16T07:35:18.927Z,97.58
2023-11-16T07:36:19.002Z,97.79
2023-11-16T07:37:18.922Z,97.48
2023-11-16T07:38:18.939Z,97.38
2023-11-16T07:39:18.952Z,97.38
2023-11-16T07:40:18.954Z,97.48
2023-11-16T07:41:18.879Z,97.89
2023-11-16T07:42:18.926Z,98.10
2023-11-16T07:43:18.842Z,98.30
2023-11-16T07:44:18.847Z,98.20
2023-11-16T07:45:18.987Z,98.51
2023-11-16T07:46:18.824Z,98.61
2023-11-16T07:47:18.796Z,99.27
2023-11-16T07:48:18.810Z,99.68
2023-11-16T07:49:18.792Z,99.79
2023-11-16T07:50:18.781Z,99.99
2023-11-16T07:51:18.788Z,99.99
2023-11-16T07:52:18.759Z,99.99
2023-11-16T07:53:18.736Z,99.99
2023-11-16T07:54:18.742Z,99.99
2023-11-16T07:55:18.749Z,99.99
2023-11-16T07:56:19.682Z,99.79
2023-11-16T07:57:18.735Z,99.38
2023-11-16T07:58:18.695Z,99.33
2023-11-16T07:59:18.685Z,99.58
2023-11-16T08:00:19.639Z,99.33
2023-11-16T08:01:18.670Z,99.22
2023-11-16T08:02:18.637Z,99.22
2023-11-16T08:03:19.114Z,99.43
2023-11-16T08:04:18.728Z,99.54
2023-11-16T08:05:18.702Z,99.54
2023-11-16T08:06:18.612Z,99.54
2023-11-16T08:07:26.606Z,99.54
2023-11-16T08:08:25.148Z,99.74
2023-11-16T08:09:25.159Z,99.74
2023-11-16T08:10:18.564Z,99.63
2023-11-16T08:11:18.569Z,99.63
2023-11-16T08:12:18.563Z,99.43
2023-11-16T08:13:18.522Z,99.12
2023-11-16T08:14:18.544Z,99.02
2023-11-16T08:15:18.515Z,98.77
2023-11-16T08:16:18.552Z,98.46
2023-11-16T08:17:18.485Z,98.25
2023-11-16T08:18:18.520Z,98.25
2023-11-16T08:19:18.589Z,98.36
2023-11-16T08:20:18.469Z,98.36
2023-11-16T08:21:18.479Z,98.46
2023-11-16T08:22:18.438Z,98.67
2023-11-16T08:23:18.408Z,98.67
2023-11-16T08:24:18.451Z,98.77
2023-11-16T08:25:18.432Z,98.57
2023-11-16T08:26:18.395Z,98.36
2023-11-16T08:27:18.465Z,98.67
2023-11-16T08:28:18.385Z,98.87
2023-11-16T08:29:18.364Z,98.67
2023-11-16T08:30:18.393Z,98.87
2023-11-16T08:31:18.399Z,98.97
2023-11-16T08:32:18.331Z,99.18
2023-11-16T08:33:18.323Z,99.18
2023-11-16T08:34:18.330Z,98.97
2023-11-16T08:35:18.298Z,98.97
2023-11-16T08:36:18.350Z,99.08
2023-11-16T08:37:18.300Z,99.18
2023-11-16T08:38:18.267Z,99.08
2023-11-16T08:39:18.266Z,98.97
2023-11-16T08:40:18.262Z,99.18
2023-11-16T08:41:18.488Z,99.28
2023-11-16T08:42:18.238Z,98.97
2023-11-16T08:43:18.214Z,98.97
2023-11-16T08:44:19.582Z,98.87
2023-11-16T08:45:18.358Z,98.77
2023-11-16T08:46:18.201Z,98.57
2023-11-16T08:47:18.168Z,98.52
2023-11-16T08:48:18.298Z,98.52
2023-11-16T08:49:18.168Z,98.42
2023-11-16T08:50:18.156Z,98.52
2023-11-16T08:51:18.165Z,98.32
2023-11-16T08:52:18.110Z,97.75
2023-11-16T08:53:18.095Z,97.86
2023-11-16T08:54:18.112Z,97.55
2023-11-16T08:55:18.068Z,97.34
2023-11-16T08:56:23.856Z,96.94
2023-11-16T08:57:18.081Z,96.17
2023-11-16T08:58:18.031Z,95.76
2023-11-16T08:59:18.041Z,95.46
2023-11-16T09:00:18.067Z,95.05
2023-11-16T09:01:18.031Z,95.46
2023-11-16T09:02:18.006Z,94.95
2023-11-16T09:03:18.127Z,95.15
2023-11-16T09:04:18.090Z,95.36
2023-11-16T09:05:17.966Z,95.66
2023-11-16T09:06:18.049Z,94.02
2023-11-16T09:07:17.962Z,95.05
2023-11-16T09:08:17.953Z,93.20
2023-11-16T09:09:17.949Z,92.75
2023-11-16T09:10:17.907Z,92.34
2023-11-16T09:11:17.899Z,91.16
2023-11-16T09:12:17.970Z,91.67
2023-11-16T09:13:17.904Z,91.56
2023-11-16T09:14:17.949Z,93.00
2023-11-16T09:15:17.938Z,93.82
2023-11-16T09:16:17.945Z,93.82
2023-11-16T09:17:17.861Z,91.87
2023-11-16T09:18:17.960Z,91.61
2023-11-16T09:19:17.869Z,88.53
2023-11-16T09:20:17.812Z,88.43
2023-11-16T09:21:17.822Z,87.41
2023-11-16T09:22:25.673Z,88.02
2023-11-16T09:23:17.764Z,86.22
2023-11-16T09:24:17.809Z,87.14
2023-11-16T09:25:17.770Z,86.11
2023-11-16T09:26:17.738Z,86.42
2023-11-16T09:27:17.809Z,85.91
2023-11-16T09:28:17.725Z,86.22
2023-11-16T09:29:17.730Z,87.04
2023-11-16T09:30:17.728Z,87.14
2023-11-16T09:31:17.695Z,86.83
2023-11-16T09:32:17.686Z,86.83
2023-11-16T09:33:17.745Z,86.32
2023-11-16T09:34:17.685Z,85.80
2023-11-16T09:35:17.667Z,84.78
2023-11-16T09:36:17.676Z,85.19
2023-11-16T09:37:17.623Z,83.96
2023-11-16T09:38:17.628Z,84.41
2023-11-16T09:39:17.655Z,84.72
2023-11-16T09:40:19.098Z,85.03
2023-11-16T09:41:17.572Z,84.61
2023-11-16T09:42:17.672Z,84.82
2023-11-16T09:43:17.573Z,85.13
2023-11-16T09:44:17.551Z,86.60
2023-11-16T09:45:17.548Z,86.71
2023-11-16T09:46:17.594Z,86.09
2023-11-16T09:47:17.527Z,85.99
2023-11-16T09:48:17.549Z,85.58
2023-11-16T09:49:18.699Z,85.23
2023-11-16T09:50:17.507Z,86.36
2023-11-16T09:51:17.495Z,85.23
2023-11-16T09:52:17.487Z,85.44
2023-11-16T09:53:17.482Z,85.39
2023-11-16T09:54:17.497Z,85.19
2023-11-16T09:55:17.439Z,84.47
2023-11-16T09:56:20.726Z,85.60
2023-11-16T09:57:17.470Z,85.60
2023-11-16T09:58:17.393Z,85.71
2023-11-16T09:59:17.410Z,85.30
2023-11-16T10:00:17.419Z,85.15
2023-11-16T10:01:17.392Z,85.66
2023-11-16T10:02:17.349Z,86.52
2023-11-16T10:03:17.448Z,86.32
2023-11-16T10:04:17.409Z,86.42
2023-11-16T10:05:17.335Z,86.48
2023-11-16T10:06:17.381Z,86.28
2023-11-16T10:07:17.722Z,85.05
2023-11-16T10:08:17.303Z,85.87
2023-11-16T10:09:17.349Z,84.95
2023-11-16T10:10:17.272Z,85.01
2023-11-16T10:11:17.255Z,85.15
2023-11-16T10:12:17.325Z,84.70
2023-11-16T10:13:17.230Z,84.12
2023-11-16T10:14:17.241Z,83.00
2023-11-16T10:15:17.300Z,82.59
2023-11-16T10:16:17.348Z,81.87
2023-11-16T10:17:17.191Z,82.08
2023-11-16T10:18:17.261Z,82.79
2023-11-16T10:19:17.201Z,82.49
2023-11-16T10:20:17.180Z,82.79
2023-11-16T10:21:17.180Z,82.76
2023-11-16T10:22:17.152Z,82.76
2023-11-16T10:23:17.127Z,82.86
2023-11-16T10:24:17.297Z,82.96
2023-11-16T10:25:17.169Z,82.65
2023-11-16T10:26:17.109Z,83.88
2023-11-16T10:27:17.210Z,83.06
2023-11-16T10:28:17.095Z,83.88
2023-11-16T10:29:17.078Z,82.04
2023-11-16T10:30:17.216Z,82.65
2023-11-16T10:31:17.108Z,81.84
2023-11-16T10:32:17.037Z,83.33
2023-11-16T10:33:17.018Z,82.82
2023-11-16T10:34:17.089Z,82.71
2023-11-16T10:35:17.022Z,82.14
2023-11-16T10:36:17.011Z,82.65
2023-11-16T10:37:16.978Z,82.45
2023-11-16T10:38:16.979Z,82.69
2023-11-16T10:39:16.976Z,82.08
2023-11-16T10:40:17.014Z,82.08
2023-11-16T10:41:16.951Z,82.79
2023-11-16T10:42:16.935Z,81.26
2023-11-16T10:43:16.957Z,81.67
2023-11-16T10:44:16.920Z,81.57
2023-11-16T10:45:16.990Z,80.91
2023-11-16T10:46:16.994Z,82.35
2023-11-16T10:47:16.936Z,82.04
2023-11-16T10:48:16.909Z,81.63
2023-11-16T10:49:16.856Z,82.04
2023-11-16T10:50:17.225Z,82.96
2023-11-16T10:51:16.829Z,82.45
2023-11-16T10:52:16.842Z,81.38
2023-11-16T10:53:16.841Z,80.88
2023-11-16T10:54:16.800Z,80.91
2023-11-16T10:55:16.807Z,81.32
2023-11-16T10:56:16.796Z,79.89
2023-11-16T10:57:16.787Z,81.12
2023-11-16T10:58:16.795Z,80.91
2023-11-16T10:59:16.748Z,81.52
2023-11-16T11:00:16.750Z,80.40
2023-11-16T11:01:17.764Z,81.52
2023-11-16T11:02:16.709Z,80.51
2023-11-16T11:03:16.763Z,80.95
2023-11-16T11:04:16.823Z,80.44
2023-11-16T11:05:16.751Z,80.95
2023-11-16T11:06:16.683Z,82.28
2023-11-16T11:07:16.682Z,82.49
2023-11-16T11:08:17.144Z,83.51
2023-11-16T11:09:16.658Z,82.28
2023-11-16T11:10:16.636Z,81.87
2023-11-16T11:11:16.612Z,83.00
2023-11-16T11:12:16.640Z,82.90
2023-11-16T11:13:16.620Z,82.39
2023-11-16T11:14:16.615Z,80.85
2023-11-16T11:15:16.603Z,80.64
2023-11-16T11:16:16.610Z,80.44
2023-11-16T11:17:16.603Z,81.67
2023-11-16T11:18:16.560Z,81.67
2023-11-16T11:19:16.563Z,82.12
2023-11-16T11:20:16.548Z,82.12
2023-11-16T11:21:16.503Z,81.81
2023-11-16T11:22:16.511Z,82.73
2023-11-16T11:23:16.500Z,83.51
2023-11-16T11:24:16.495Z,82.69
2023-11-16T11:25:16.506Z,84.27
2023-11-16T11:26:16.473Z,83.34
2023-11-16T11:27:16.484Z,83.04
2023-11-16T11:28:16.458Z,83.14
2023-11-16T11:29:16.457Z,83.65
2023-11-16T11:30:16.423Z,83.96
2023-11-16T11:31:16.519Z,82.83
2023-11-16T11:32:16.398Z,81.91
2023-11-16T11:33:16.396Z,81.71
2023-11-16T11:34:16.473Z,81.40
2023-11-16T11:35:16.400Z,81.91
2023-11-16T11:36:16.365Z,81.91
2023-11-16T11:37:16.895Z,82.01
2023-11-16T11:38:16.353Z,81.91
2023-11-16T11:39:16.453Z,81.98
2023-11-16T11:40:16.335Z,82.08
2023-11-16T11:41:16.336Z,80.64
2023-11-16T11:42:16.286Z,80.03
2023-11-16T11:43:16.295Z,80.64
2023-11-16T11:44:17.687Z,80.60
2023-11-16T11:45:16.313Z,80.91
2023-11-16T11:46:16.299Z,79.07
2023-11-16T11:47:16.237Z,79.96
2023-11-16T11:48:16.274Z,79.85
2023-11-16T11:49:16.219Z,80.53
2023-11-16T11:50:17.451Z,78.59
2023-11-16T11:51:16.196Z,79.88
2023-11-16T11:52:16.216Z,78.24
2023-11-16T11:53:16.203Z,78.14
2023-11-16T11:54:16.234Z,78.96
2023-11-16T11:55:16.144Z,79.16
2023-11-16T11:56:16.387Z,76.98
2023-11-16T11:57:22.792Z,77.80
2023-11-16T11:58:16.203Z,77.94
2023-11-16T11:59:16.112Z,79.06
2023-11-16T12:00:18.135Z,77.49
2023-11-16T12:01:16.106Z,77.49
2023-11-16T12:02:16.085Z,76.61
2023-11-16T12:03:16.172Z,75.93
2023-11-16T12:04:19.962Z,77.09
2023-11-16T12:05:17.771Z,76.81
2023-11-16T12:06:16.081Z,76.92
2023-11-16T12:07:16.014Z,76.81
2023-11-16T12:08:16.031Z,76.92
2023-11-16T12:09:15.992Z,77.12
2023-11-16T12:10:15.994Z,78.35
2023-11-16T12:11:15.977Z,76.92
2023-11-16T12:12:15.970Z,77.73
2023-11-16T12:13:16.049Z,78.15
2023-11-16T12:14:15.945Z,77.53
2023-11-16T12:15:15.944Z,77.53
2023-11-16T12:16:15.995Z,78.25
2023-11-16T12:17:15.912Z,77.73
2023-11-16T12:18:18.564Z,79.89
2023-11-16T12:19:15.902Z,78.01
2023-11-16T12:20:15.917Z,77.39
2023-11-16T12:21:15.870Z,78.31
2023-11-16T12:22:15.853Z,77.80
2023-11-16T12:23:15.843Z,77.91
2023-11-16T12:24:17.477Z,78.97
2023-11-16T12:25:15.814Z,79.89
2023-11-16T12:26:15.842Z,78.76
2023-11-16T12:27:15.805Z,79.48
2023-11-16T12:28:15.782Z,79.41
2023-11-16T12:29:15.823Z,79.31
2023-11-16T12:30:17.270Z,79.41
2023-11-16T12:31:15.846Z,80.64
2023-11-16T12:32:15.751Z,79.27
2023-11-16T12:33:15.832Z,78.49
2023-11-16T12:34:15.761Z,79.21
2023-11-16T12:35:15.796Z,80.54
2023-11-16T12:36:16.788Z,81.46
2023-11-16T12:37:15.711Z,80.44
2023-11-16T12:38:15.689Z,80.03
2023-11-16T12:39:15.679Z,80.64
2023-11-16T12:40:15.688Z,80.03
2023-11-16T12:41:15.671Z,79.21
2023-11-16T12:42:15.666Z,78.70
2023-11-16T12:43:15.633Z,79.68
2023-11-16T12:44:15.655Z,80.40
2023-11-16T12:45:15.624Z,77.94
2023-11-16T12:46:15.752Z,78.15
2023-11-16T12:47:22.124Z,77.06
2023-11-16T12:48:15.709Z,76.75
2023-11-16T12:49:15.620Z,76.65
2023-11-16T12:50:15.573Z,77.06
2023-11-16T12:51:15.553Z,76.03
2023-11-16T12:52:15.529Z,76.24